sensor_id;sensor_type;location;lat;lon;timestamp;P1;durP1;ratioP1;P2;durP2;ratioP2
69744;SDS011;57015;50.120;-5.168;2023-04-19T00:01:08;7.57;;;2.78;;
69744;SDS011;57015;50.120;-5.168;2023-04-19T00:03:35;6.47;;;2.63;;
69744;SDS011;57015;50.120;-5.168;2023-04-19T00:06:00;7.37;;;3.37;;
69744;SDS011;57015;50.120;-5.168;2023-04-19T00:08:26;14.45;;;3.35;;
69744;SDS011;57015;50.120;-5.168;2023-04-19T00:10:52;7.43;;;3.30;;
69744;SDS011;57015;50.120;-5.168;2023-04-19T00:13:17;9.43;;;3.78;;
69744;SDS011;57015;50.120;-5.168;2023-04-19T00:15:42;10.90;;;4.00;;
69744;SDS011;57015;50.120;-5.168;2023-04-19T00:18:08;9.67;;;3.93;;
69744;SDS011;57015;50.120;-5.168;2023-04-19T00:20:33;8.03;;;3.27;;
69744;SDS011;57015;50.120;-5.168;2023-04-19T00:22:59;9.67;;;3.83;;
69744;SDS011;57015;50.120;-5.168;2023-04-19T00:25:24;10.10;;;3.90;;
69744;SDS011;57015;50.120;-5.168;2023-04-19T00:27:49;10.30;;;3.30;;
69744;SDS011;57015;50.120;-5.168;2023-04-19T00:30:15;8.90;;;3.43;;
69744;SDS011;57015;50.120;-5.168;2023-04-19T00:32:40;9.10;;;4.03;;
69744;SDS011;57015;50.120;-5.168;2023-04-19T00:35:06;9.03;;;3.30;;
69744;SDS011;57015;50.120;-5.168;2023-04-19T00:37:31;9.60;;;4.03;;
69744;SDS011;57015;50.120;-5.168;2023-04-19T00:39:57;10.38;;;3.78;;
69744;SDS011;57015;50.120;-5.168;2023-04-19T00:42:22;9.43;;;4.00;;
69744;SDS011;57015;50.120;-5.168;2023-04-19T00:44:47;8.50;;;3.60;;
69744;SDS011;57015;50.120;-5.168;2023-04-19T00:47:13;10.17;;;3.60;;
69744;SDS011;57015;50.120;-5.168;2023-04-19T00:49:38;8.30;;;3.57;;
69744;SDS011;57015;50.120;-5.168;2023-04-19T00:52:04;10.82;;;3.92;;
69744;SDS011;57015;50.120;-5.168;2023-04-19T00:54:30;10.38;;;4.68;;
69744;SDS011;57015;50.120;-5.168;2023-04-19T00:56:57;14.33;;;4.20;;
69744;SDS011;57015;50.120;-5.168;2023-04-19T00:59:22;9.25;;;4.57;;
69744;SDS011;57015;50.120;-5.168;2023-04-19T01:01:48;12.70;;;4.88;;
69744;SDS011;57015;50.120;-5.168;2023-04-19T01:04:14;12.70;;;5.27;;
69744;SDS011;57015;50.120;-5.168;2023-04-19T01:06:40;13.23;;;5.28;;
69744;SDS011;57015;50.120;-5.168;2023-04-19T01:09:06;14.07;;;5.78;;
69744;SDS011;57015;50.120;-5.168;2023-04-19T01:11:31;11.33;;;6.10;;
69744;SDS011;57015;50.120;-5.168;2023-04-19T01:13:56;15.57;;;7.00;;
69744;SDS011;57015;50.120;-5.168;2023-04-19T01:16:23;14.82;;;7.40;;
69744;SDS011;57015;50.120;-5.168;2023-04-19T01:18:50;16.73;;;8.48;;
69744;SDS011;57015;50.120;-5.168;2023-04-19T01:21:15;17.80;;;8.87;;
69744;SDS011;57015;50.120;-5.168;2023-04-19T01:23:41;16.70;;;8.63;;
69744;SDS011;57015;50.120;-5.168;2023-04-19T01:26:06;17.97;;;8.80;;
69744;SDS011;57015;50.120;-5.168;2023-04-19T01:28:32;18.48;;;8.88;;
69744;SDS011;57015;50.120;-5.168;2023-04-19T01:30:57;20.67;;;9.50;;
69744;SDS011;57015;50.120;-5.168;2023-04-19T01:33:23;20.70;;;9.57;;
69744;SDS011;57015;50.120;-5.168;2023-04-19T01:35:48;19.43;;;9.87;;
69744;SDS011;57015;50.120;-5.168;2023-04-19T01:38:14;21.53;;;10.00;;
69744;SDS011;57015;50.120;-5.168;2023-04-19T01:40:40;20.83;;;10.45;;
69744;SDS011;57015;50.120;-5.168;2023-04-19T01:43:05;26.33;;;11.93;;
69744;SDS011;57015;50.120;-5.168;2023-04-19T01:45:31;20.83;;;11.15;;
69744;SDS011;57015;50.120;-5.168;2023-04-19T01:47:58;25.45;;;12.73;;
69744;SDS011;57015;50.120;-5.168;2023-04-19T01:50:25;23.30;;;12.43;;
69744;SDS011;57015;50.120;-5.168;2023-04-19T01:52:51;27.17;;;12.80;;
69744;SDS011;57015;50.120;-5.168;2023-04-19T01:55:16;24.93;;;12.23;;
69744;SDS011;57015;50.120;-5.168;2023-04-19T01:57:42;25.77;;;12.88;;
69744;SDS011;57015;50.120;-5.168;2023-04-19T02:00:07;23.80;;;12.20;;
69744;SDS011;57015;50.120;-5.168;2023-04-19T02:02:35;29.93;;;13.83;;
69744;SDS011;57015;50.120;-5.168;2023-04-19T02:05:04;27.00;;;13.63;;
69744;SDS011;57015;50.120;-5.168;2023-04-19T02:07:30;30.50;;;13.50;;
69744;SDS011;57015;50.120;-5.168;2023-04-19T02:09:55;26.83;;;13.03;;
69744;SDS011;57015;50.120;-5.168;2023-04-19T02:12:23;26.77;;;13.35;;
69744;SDS011;57015;50.120;-5.168;2023-04-19T02:14:52;27.13;;;13.30;;
69744;SDS011;57015;50.120;-5.168;2023-04-19T02:17:17;23.10;;;12.97;;
69744;SDS011;57015;50.120;-5.168;2023-04-19T02:19:43;25.27;;;13.53;;
69744;SDS011;57015;50.120;-5.168;2023-04-19T02:22:08;27.17;;;13.23;;
69744;SDS011;57015;50.120;-5.168;2023-04-19T02:24:34;28.40;;;12.50;;
69744;SDS011;57015;50.120;-5.168;2023-04-19T02:26:59;27.90;;;12.70;;
69744;SDS011;57015;50.120;-5.168;2023-04-19T02:29:25;30.73;;;14.17;;
69744;SDS011;57015;50.120;-5.168;2023-04-19T02:31:51;28.20;;;13.13;;
69744;SDS011;57015;50.120;-5.168;2023-04-19T02:34:17;24.87;;;12.73;;
69744;SDS011;57015;50.120;-5.168;2023-04-19T02:36:42;27.92;;;13.55;;
69744;SDS011;57015;50.120;-5.168;2023-04-19T02:39:08;24.43;;;11.77;;
69744;SDS011;57015;50.120;-5.168;2023-04-19T02:41:33;27.93;;;13.37;;
69744;SDS011;57015;50.120;-5.168;2023-04-19T02:43:58;29.07;;;13.73;;
69744;SDS011;57015;50.120;-5.168;2023-04-19T02:46:24;28.07;;;13.60;;
69744;SDS011;57015;50.120;-5.168;2023-04-19T02:48:49;25.33;;;12.90;;
69744;SDS011;57015;50.120;-5.168;2023-04-19T02:51:15;29.20;;;14.10;;
69744;SDS011;57015;50.120;-5.168;2023-04-19T02:53:41;26.98;;;13.57;;
69744;SDS011;57015;50.120;-5.168;2023-04-19T02:56:06;29.70;;;13.03;;
69744;SDS011;57015;50.120;-5.168;2023-04-19T02:58:32;25.67;;;13.32;;
69744;SDS011;57015;50.120;-5.168;2023-04-19T03:00:57;25.67;;;13.17;;
69744;SDS011;57015;50.120;-5.168;2023-04-19T03:03:23;27.90;;;12.70;;
69744;SDS011;57015;50.120;-5.168;2023-04-19T03:05:48;31.73;;;13.20;;
69744;SDS011;57015;50.120;-5.168;2023-04-19T03:08:13;24.63;;;12.77;;
69744;SDS011;57015;50.120;-5.168;2023-04-19T03:10:39;23.45;;;12.20;;
69744;SDS011;57015;50.120;-5.168;2023-04-19T03:13:04;26.37;;;12.93;;
69744;SDS011;57015;50.120;-5.168;2023-04-19T03:15:30;28.83;;;12.37;;
69744;SDS011;57015;50.120;-5.168;2023-04-19T03:17:55;23.80;;;12.20;;
69744;SDS011;57015;50.120;-5.168;2023-04-19T03:20:20;21.67;;;10.70;;
69744;SDS011;57015;50.120;-5.168;2023-04-19T03:22:46;22.77;;;11.03;;
69744;SDS011;57015;50.120;-5.168;2023-04-19T03:25:11;25.88;;;12.45;;
69744;SDS011;57015;50.120;-5.168;2023-04-19T03:27:37;22.87;;;11.07;;
69744;SDS011;57015;50.120;-5.168;2023-04-19T03:30:03;24.83;;;11.93;;
69744;SDS011;57015;50.120;-5.168;2023-04-19T03:32:30;23.85;;;12.60;;
69744;SDS011;57015;50.120;-5.168;2023-04-19T03:34:55;21.13;;;11.53;;
69744;SDS011;57015;50.120;-5.168;2023-04-19T03:37:21;23.00;;;11.40;;
69744;SDS011;57015;50.120;-5.168;2023-04-19T03:39:46;25.00;;;11.27;;
69744;SDS011;57015;50.120;-5.168;2023-04-19T03:42:11;22.20;;;12.63;;
69744;SDS011;57015;50.120;-5.168;2023-04-19T03:44:37;27.47;;;12.07;;
69744;SDS011;57015;50.120;-5.168;2023-04-19T03:47:02;22.23;;;11.67;;
69744;SDS011;57015;50.120;-5.168;2023-04-19T03:49:28;23.53;;;11.47;;
69744;SDS011;57015;50.120;-5.168;2023-04-19T03:51:53;26.67;;;12.48;;
69744;SDS011;57015;50.120;-5.168;2023-04-19T03:54:18;26.77;;;11.50;;
69744;SDS011;57015;50.120;-5.168;2023-04-19T03:56:44;23.73;;;11.20;;
69744;SDS011;57015;50.120;-5.168;2023-04-19T03:59:09;22.60;;;11.70;;
69744;SDS011;57015;50.120;-5.168;2023-04-19T04:01:35;22.20;;;10.73;;
69744;SDS011;57015;50.120;-5.168;2023-04-19T04:04:06;21.73;;;11.80;;
69744;SDS011;57015;50.120;-5.168;2023-04-19T04:06:32;21.65;;;11.13;;
69744;SDS011;57015;50.120;-5.168;2023-04-19T04:08:58;21.43;;;10.50;;
69744;SDS011;57015;50.120;-5.168;2023-04-19T04:11:23;23.88;;;10.70;;
69744;SDS011;57015;50.120;-5.168;2023-04-19T04:13:49;24.27;;;11.63;;
69744;SDS011;57015;50.120;-5.168;2023-04-19T04:16:15;24.73;;;12.20;;
69744;SDS011;57015;50.120;-5.168;2023-04-19T04:18:40;21.65;;;10.68;;
69744;SDS011;57015;50.120;-5.168;2023-04-19T04:21:06;24.70;;;10.10;;
69744;SDS011;57015;50.120;-5.168;2023-04-19T04:23:31;20.93;;;11.07;;
69744;SDS011;57015;50.120;-5.168;2023-04-19T04:25:58;22.65;;;11.13;;
69744;SDS011;57015;50.120;-5.168;2023-04-19T04:28:25;20.37;;;10.50;;
69744;SDS011;57015;50.120;-5.168;2023-04-19T04:30:50;27.50;;;11.32;;
69744;SDS011;57015;50.120;-5.168;2023-04-19T04:33:16;23.20;;;10.27;;
69744;SDS011;57015;50.120;-5.168;2023-04-19T04:35:42;21.63;;;10.55;;
69744;SDS011;57015;50.120;-5.168;2023-04-19T04:38:07;22.70;;;10.90;;
69744;SDS011;57015;50.120;-5.168;2023-04-19T04:40:33;20.75;;;9.93;;
69744;SDS011;57015;50.120;-5.168;2023-04-19T04:42:59;23.23;;;10.20;;
69744;SDS011;57015;50.120;-5.168;2023-04-19T04:45:25;18.90;;;10.45;;
69744;SDS011;57015;50.120;-5.168;2023-04-19T04:47:50;22.03;;;10.33;;
69744;SDS011;57015;50.120;-5.168;2023-04-19T04:50:16;17.83;;;10.75;;
69744;SDS011;57015;50.120;-5.168;2023-04-19T04:52:41;24.60;;;11.35;;
69744;SDS011;57015;50.120;-5.168;2023-04-19T04:55:07;19.47;;;10.03;;
69744;SDS011;57015;50.120;-5.168;2023-04-19T04:57:33;19.02;;;9.63;;
69744;SDS011;57015;50.120;-5.168;2023-04-19T04:59:58;22.43;;;10.20;;
69744;SDS011;57015;50.120;-5.168;2023-04-19T05:02:24;18.63;;;9.37;;
69744;SDS011;57015;50.120;-5.168;2023-04-19T05:04:49;19.60;;;10.30;;
69744;SDS011;57015;50.120;-5.168;2023-04-19T05:07:14;16.83;;;8.30;;
69744;SDS011;57015;50.120;-5.168;2023-04-19T05:09:40;17.63;;;8.30;;
69744;SDS011;57015;50.120;-5.168;2023-04-19T05:12:05;17.60;;;8.60;;
69744;SDS011;57015;50.120;-5.168;2023-04-19T05:14:31;18.87;;;9.30;;
69744;SDS011;57015;50.120;-5.168;2023-04-19T05:16:56;16.77;;;9.53;;
69744;SDS011;57015;50.120;-5.168;2023-04-19T05:19:21;15.30;;;8.57;;
69744;SDS011;57015;50.120;-5.168;2023-04-19T05:21:47;21.00;;;9.73;;
69744;SDS011;57015;50.120;-5.168;2023-04-19T05:24:12;18.50;;;9.05;;
69744;SDS011;57015;50.120;-5.168;2023-04-19T05:26:37;18.95;;;9.55;;
69744;SDS011;57015;50.120;-5.168;2023-04-19T05:29:03;16.63;;;8.10;;
69744;SDS011;57015;50.120;-5.168;2023-04-19T05:31:28;18.10;;;8.50;;
69744;SDS011;57015;50.120;-5.168;2023-04-19T05:33:53;15.77;;;8.43;;
69744;SDS011;57015;50.120;-5.168;2023-04-19T05:36:19;19.07;;;8.53;;
69744;SDS011;57015;50.120;-5.168;2023-04-19T05:38:44;18.70;;;9.07;;
69744;SDS011;57015;50.120;-5.168;2023-04-19T05:41:10;18.73;;;8.98;;
69744;SDS011;57015;50.120;-5.168;2023-04-19T05:43:36;16.47;;;8.67;;
69744;SDS011;57015;50.120;-5.168;2023-04-19T05:46:01;15.90;;;7.80;;
69744;SDS011;57015;50.120;-5.168;2023-04-19T05:48:26;18.70;;;9.37;;
69744;SDS011;57015;50.120;-5.168;2023-04-19T05:50:52;17.80;;;8.23;;
69744;SDS011;57015;50.120;-5.168;2023-04-19T05:53:19;16.42;;;8.43;;
69744;SDS011;57015;50.120;-5.168;2023-04-19T05:55:44;19.37;;;9.63;;
69744;SDS011;57015;50.120;-5.168;2023-04-19T05:58:12;17.70;;;9.48;;
69744;SDS011;57015;50.120;-5.168;2023-04-19T06:00:37;17.80;;;9.10;;
69744;SDS011;57015;50.120;-5.168;2023-04-19T06:03:03;18.27;;;8.73;;
69744;SDS011;57015;50.120;-5.168;2023-04-19T06:05:28;16.73;;;8.43;;
69744;SDS011;57015;50.120;-5.168;2023-04-19T06:07:53;16.40;;;8.63;;
69744;SDS011;57015;50.120;-5.168;2023-04-19T06:10:20;18.95;;;10.05;;
69744;SDS011;57015;50.120;-5.168;2023-04-19T06:12:47;21.05;;;9.60;;
69744;SDS011;57015;50.120;-5.168;2023-04-19T06:15:12;21.27;;;9.87;;
69744;SDS011;57015;50.120;-5.168;2023-04-19T06:17:37;16.10;;;8.30;;
69744;SDS011;57015;50.120;-5.168;2023-04-19T06:20:03;20.77;;;10.40;;
69744;SDS011;57015;50.120;-5.168;2023-04-19T06:22:31;22.65;;;10.70;;
69744;SDS011;57015;50.120;-5.168;2023-04-19T06:24:56;19.73;;;10.40;;
69744;SDS011;57015;50.120;-5.168;2023-04-19T06:27:22;24.20;;;11.57;;
69744;SDS011;57015;50.120;-5.168;2023-04-19T06:29:47;21.40;;;10.73;;
69744;SDS011;57015;50.120;-5.168;2023-04-19T06:32:12;20.70;;;10.47;;
69744;SDS011;57015;50.120;-5.168;2023-04-19T06:34:38;20.75;;;10.32;;
69744;SDS011;57015;50.120;-5.168;2023-04-19T06:37:03;21.50;;;10.80;;
69744;SDS011;57015;50.120;-5.168;2023-04-19T06:39:29;24.37;;;11.00;;
69744;SDS011;57015;50.120;-5.168;2023-04-19T06:41:54;20.70;;;10.40;;
69744;SDS011;57015;50.120;-5.168;2023-04-19T06:44:20;22.90;;;10.87;;
69744;SDS011;57015;50.120;-5.168;2023-04-19T06:46:45;22.13;;;11.02;;
69744;SDS011;57015;50.120;-5.168;2023-04-19T06:49:10;25.50;;;11.40;;
69744;SDS011;57015;50.120;-5.168;2023-04-19T06:51:37;25.10;;;12.20;;
69744;SDS011;57015;50.120;-5.168;2023-04-19T06:54:03;22.60;;;11.55;;
69744;SDS011;57015;50.120;-5.168;2023-04-19T06:56:41;22.93;;;11.30;;
69744;SDS011;57015;50.120;-5.168;2023-04-19T06:59:10;23.70;;;11.73;;
69744;SDS011;57015;50.120;-5.168;2023-04-19T07:01:36;24.20;;;11.50;;
69744;SDS011;57015;50.120;-5.168;2023-04-19T07:04:02;24.15;;;11.88;;
69744;SDS011;57015;50.120;-5.168;2023-04-19T07:06:27;23.90;;;12.63;;
69744;SDS011;57015;50.120;-5.168;2023-04-19T07:08:53;27.20;;;13.00;;
69744;SDS011;57015;50.120;-5.168;2023-04-19T07:11:19;25.00;;;12.07;;
69744;SDS011;57015;50.120;-5.168;2023-04-19T07:13:44;28.05;;;12.63;;
69744;SDS011;57015;50.120;-5.168;2023-04-19T07:16:10;28.13;;;12.30;;
69744;SDS011;57015;50.120;-5.168;2023-04-19T07:18:35;25.83;;;13.60;;
69744;SDS011;57015;50.120;-5.168;2023-04-19T07:21:00;29.03;;;13.57;;
69744;SDS011;57015;50.120;-5.168;2023-04-19T07:23:26;27.27;;;12.90;;
69744;SDS011;57015;50.120;-5.168;2023-04-19T07:25:51;25.93;;;13.50;;
69744;SDS011;57015;50.120;-5.168;2023-04-19T07:28:17;26.88;;;13.02;;
69744;SDS011;57015;50.120;-5.168;2023-04-19T07:30:42;27.55;;;13.65;;
69744;SDS011;57015;50.120;-5.168;2023-04-19T07:33:10;26.23;;;13.03;;
69744;SDS011;57015;50.120;-5.168;2023-04-19T07:35:37;33.90;;;14.15;;
69744;SDS011;57015;50.120;-5.168;2023-04-19T07:38:03;31.17;;;13.57;;
69744;SDS011;57015;50.120;-5.168;2023-04-19T07:40:28;28.88;;;12.70;;
69744;SDS011;57015;50.120;-5.168;2023-04-19T07:42:54;31.67;;;14.97;;
69744;SDS011;57015;50.120;-5.168;2023-04-19T07:45:19;31.30;;;14.63;;
69744;SDS011;57015;50.120;-5.168;2023-04-19T07:47:45;32.00;;;15.20;;
69744;SDS011;57015;50.120;-5.168;2023-04-19T07:50:10;32.42;;;14.77;;
69744;SDS011;57015;50.120;-5.168;2023-04-19T07:52:36;35.13;;;14.65;;
69744;SDS011;57015;50.120;-5.168;2023-04-19T07:55:02;32.33;;;15.13;;
69744;SDS011;57015;50.120;-5.168;2023-04-19T07:57:27;32.42;;;14.60;;
69744;SDS011;57015;50.120;-5.168;2023-04-19T07:59:52;35.00;;;15.47;;
69744;SDS011;57015;50.120;-5.168;2023-04-19T08:02:22;34.78;;;15.35;;
69744;SDS011;57015;50.120;-5.168;2023-04-19T08:04:47;33.30;;;16.23;;
69744;SDS011;57015;50.120;-5.168;2023-04-19T08:07:13;34.35;;;15.98;;
69744;SDS011;57015;50.120;-5.168;2023-04-19T08:09:39;33.17;;;15.83;;
69744;SDS011;57015;50.120;-5.168;2023-04-19T08:12:04;38.00;;;16.15;;
69744;SDS011;57015;50.120;-5.168;2023-04-19T08:14:30;33.70;;;16.07;;
69744;SDS011;57015;50.120;-5.168;2023-04-19T08:16:55;32.40;;;15.40;;
69744;SDS011;57015;50.120;-5.168;2023-04-19T08:19:20;37.60;;;17.33;;
69744;SDS011;57015;50.120;-5.168;2023-04-19T08:21:46;36.37;;;17.20;;
69744;SDS011;57015;50.120;-5.168;2023-04-19T08:24:12;36.50;;;16.73;;
69744;SDS011;57015;50.120;-5.168;2023-04-19T08:26:37;36.27;;;16.67;;
69744;SDS011;57015;50.120;-5.168;2023-04-19T08:29:03;38.45;;;17.25;;
69744;SDS011;57015;50.120;-5.168;2023-04-19T08:31:28;36.90;;;16.67;;
69744;SDS011;57015;50.120;-5.168;2023-04-19T08:33:53;37.43;;;16.87;;
69744;SDS011;57015;50.120;-5.168;2023-04-19T08:36:19;34.30;;;16.83;;
69744;SDS011;57015;50.120;-5.168;2023-04-19T08:38:44;36.03;;;16.57;;
69744;SDS011;57015;50.120;-5.168;2023-04-19T08:41:10;34.50;;;16.63;;
69744;SDS011;57015;50.120;-5.168;2023-04-19T08:43:35;39.78;;;18.13;;
69744;SDS011;57015;50.120;-5.168;2023-04-19T08:46:01;38.57;;;17.60;;
69744;SDS011;57015;50.120;-5.168;2023-04-19T08:48:27;34.28;;;15.98;;
69744;SDS011;57015;50.120;-5.168;2023-04-19T08:50:53;43.53;;;17.10;;
69744;SDS011;57015;50.120;-5.168;2023-04-19T08:53:20;34.70;;;17.10;;
69744;SDS011;57015;50.120;-5.168;2023-04-19T08:55:46;34.83;;;17.73;;
69744;SDS011;57015;50.120;-5.168;2023-04-19T08:58:12;38.90;;;18.10;;
69744;SDS011;57015;50.120;-5.168;2023-04-19T09:00:37;34.95;;;17.60;;
69744;SDS011;57015;50.120;-5.168;2023-04-19T09:03:06;38.58;;;17.95;;
69744;SDS011;57015;50.120;-5.168;2023-04-19T09:05:31;31.58;;;16.65;;
69744;SDS011;57015;50.120;-5.168;2023-04-19T09:10:55;33.05;;;16.17;;
69744;SDS011;57015;50.120;-5.168;2023-04-19T09:13:24;36.63;;;16.83;;
69744;SDS011;57015;50.120;-5.168;2023-04-19T09:15:50;35.17;;;17.00;;
69744;SDS011;57015;50.120;-5.168;2023-04-19T09:18:15;35.75;;;17.48;;
69744;SDS011;57015;50.120;-5.168;2023-04-19T09:20:42;40.27;;;18.30;;
69744;SDS011;57015;50.120;-5.168;2023-04-19T09:23:09;36.47;;;18.20;;
69744;SDS011;57015;50.120;-5.168;2023-04-19T09:25:37;39.05;;;17.88;;
69744;SDS011;57015;50.120;-5.168;2023-04-19T09:28:22;36.70;;;17.17;;
69744;SDS011;57015;50.120;-5.168;2023-04-19T09:30:48;36.47;;;17.83;;
69744;SDS011;57015;50.120;-5.168;2023-04-19T09:33:29;38.27;;;17.17;;
69744;SDS011;57015;50.120;-5.168;2023-04-19T09:35:57;36.28;;;17.73;;
69744;SDS011;57015;50.120;-5.168;2023-04-19T09:38:23;35.95;;;17.77;;
69744;SDS011;57015;50.120;-5.168;2023-04-19T09:40:48;41.47;;;19.30;;
69744;SDS011;57015;50.120;-5.168;2023-04-19T09:43:22;37.67;;;18.38;;
69744;SDS011;57015;50.120;-5.168;2023-04-19T09:45:48;36.97;;;18.08;;
69744;SDS011;57015;50.120;-5.168;2023-04-19T09:48:14;41.07;;;18.57;;
69744;SDS011;57015;50.120;-5.168;2023-04-19T09:50:58;38.10;;;18.37;;
69744;SDS011;57015;50.120;-5.168;2023-04-19T09:53:27;41.70;;;19.85;;
69744;SDS011;57015;50.120;-5.168;2023-04-19T09:55:53;42.88;;;19.92;;
69744;SDS011;57015;50.120;-5.168;2023-04-19T09:58:19;36.70;;;18.73;;
69744;SDS011;57015;50.120;-5.168;2023-04-19T10:00:45;41.53;;;18.83;;
69744;SDS011;57015;50.120;-5.168;2023-04-19T10:03:13;39.40;;;17.67;;
69744;SDS011;57015;50.120;-5.168;2023-04-19T10:05:39;40.57;;;19.77;;
69744;SDS011;57015;50.120;-5.168;2023-04-19T10:08:09;38.65;;;18.88;;
69744;SDS011;57015;50.120;-5.168;2023-04-19T10:10:36;41.97;;;19.98;;
69744;SDS011;57015;50.120;-5.168;2023-04-19T10:13:04;37.80;;;18.13;;
69744;SDS011;57015;50.120;-5.168;2023-04-19T10:15:31;40.57;;;18.90;;
69744;SDS011;57015;50.120;-5.168;2023-04-19T10:17:58;35.72;;;18.23;;
69744;SDS011;57015;50.120;-5.168;2023-04-19T10:20:26;38.13;;;18.00;;
69744;SDS011;57015;50.120;-5.168;2023-04-19T10:22:56;37.23;;;18.77;;
69744;SDS011;57015;50.120;-5.168;2023-04-19T10:25:26;42.67;;;18.10;;
69744;SDS011;57015;50.120;-5.168;2023-04-19T10:27:53;37.15;;;17.27;;
69744;SDS011;57015;50.120;-5.168;2023-04-19T10:30:22;42.50;;;18.83;;
69744;SDS011;57015;50.120;-5.168;2023-04-19T10:32:51;37.30;;;18.08;;
69744;SDS011;57015;50.120;-5.168;2023-04-19T10:38:01;35.53;;;18.55;;
69744;SDS011;57015;50.120;-5.168;2023-04-19T10:43:31;37.25;;;17.58;;
69744;SDS011;57015;50.120;-5.168;2023-04-19T10:46:08;37.53;;;18.27;;
69744;SDS011;57015;50.120;-5.168;2023-04-19T10:48:38;46.50;;;19.47;;
69744;SDS011;57015;50.120;-5.168;2023-04-19T10:51:14;38.85;;;18.25;;
69744;SDS011;57015;50.120;-5.168;2023-04-19T10:56:12;45.00;;;19.45;;
69744;SDS011;57015;50.120;-5.168;2023-04-19T11:04:02;38.92;;;17.80;;
69744;SDS011;57015;50.120;-5.168;2023-04-19T11:06:27;35.60;;;18.20;;
69744;SDS011;57015;50.120;-5.168;2023-04-19T11:08:53;40.38;;;18.92;;
69744;SDS011;57015;50.120;-5.168;2023-04-19T11:11:19;37.33;;;17.83;;
69744;SDS011;57015;50.120;-5.168;2023-04-19T11:13:48;35.92;;;18.10;;
69744;SDS011;57015;50.120;-5.168;2023-04-19T11:16:14;37.65;;;19.08;;
69744;SDS011;57015;50.120;-5.168;2023-04-19T11:18:39;40.33;;;19.30;;
69744;SDS011;57015;50.120;-5.168;2023-04-19T11:21:05;34.90;;;17.77;;
69744;SDS011;57015;50.120;-5.168;2023-04-19T11:23:30;38.33;;;18.30;;
69744;SDS011;57015;50.120;-5.168;2023-04-19T11:25:55;36.95;;;18.20;;
69744;SDS011;57015;50.120;-5.168;2023-04-19T11:28:21;37.33;;;18.58;;
69744;SDS011;57015;50.120;-5.168;2023-04-19T11:30:47;37.77;;;19.00;;
69744;SDS011;57015;50.120;-5.168;2023-04-19T11:33:12;35.97;;;17.90;;
69744;SDS011;57015;50.120;-5.168;2023-04-19T11:35:38;38.08;;;17.00;;
69744;SDS011;57015;50.120;-5.168;2023-04-19T11:38:03;30.77;;;16.47;;
69744;SDS011;57015;50.120;-5.168;2023-04-19T11:40:29;34.58;;;18.00;;
69744;SDS011;57015;50.120;-5.168;2023-04-19T11:42:59;41.60;;;17.67;;
69744;SDS011;57015;50.120;-5.168;2023-04-19T11:45:31;38.10;;;17.50;;
69744;SDS011;57015;50.120;-5.168;2023-04-19T11:47:58;38.20;;;19.00;;
69744;SDS011;57015;50.120;-5.168;2023-04-19T11:53:08;42.65;;;19.35;;
69744;SDS011;57015;50.120;-5.168;2023-04-19T11:55:34;39.92;;;18.27;;
69744;SDS011;57015;50.120;-5.168;2023-04-19T11:57:59;38.90;;;18.90;;
69744;SDS011;57015;50.120;-5.168;2023-04-19T12:00:26;36.85;;;19.50;;
69744;SDS011;57015;50.120;-5.168;2023-04-19T12:02:52;37.47;;;19.67;;
69744;SDS011;57015;50.120;-5.168;2023-04-19T12:05:17;36.93;;;18.07;;
69744;SDS011;57015;50.120;-5.168;2023-04-19T12:07:59;38.10;;;18.80;;
69744;SDS011;57015;50.120;-5.168;2023-04-19T12:10:32;41.05;;;19.25;;
69744;SDS011;57015;50.120;-5.168;2023-04-19T12:12:58;42.30;;;19.75;;
69744;SDS011;57015;50.120;-5.168;2023-04-19T12:15:45;37.17;;;19.73;;
69744;SDS011;57015;50.120;-5.168;2023-04-19T12:18:10;37.05;;;19.23;;
69744;SDS011;57015;50.120;-5.168;2023-04-19T12:20:36;43.33;;;20.13;;
69744;SDS011;57015;50.120;-5.168;2023-04-19T12:23:02;40.15;;;19.50;;
69744;SDS011;57015;50.120;-5.168;2023-04-19T12:25:31;37.15;;;18.50;;
69744;SDS011;57015;50.120;-5.168;2023-04-19T12:27:58;38.63;;;18.98;;
69744;SDS011;57015;50.120;-5.168;2023-04-19T12:30:24;40.77;;;19.90;;
69744;SDS011;57015;50.120;-5.168;2023-04-19T12:32:50;37.33;;;19.17;;
69744;SDS011;57015;50.120;-5.168;2023-04-19T12:35:19;40.75;;;18.35;;
69744;SDS011;57015;50.120;-5.168;2023-04-19T12:37:48;35.80;;;19.05;;
69744;SDS011;57015;50.120;-5.168;2023-04-19T12:40:14;39.33;;;20.30;;
69744;SDS011;57015;50.120;-5.168;2023-04-19T12:42:39;41.17;;;19.30;;
69744;SDS011;57015;50.120;-5.168;2023-04-19T12:45:05;37.47;;;19.33;;
69744;SDS011;57015;50.120;-5.168;2023-04-19T12:47:31;40.90;;;20.73;;
69744;SDS011;57015;50.120;-5.168;2023-04-19T12:49:56;40.55;;;20.02;;
69744;SDS011;57015;50.120;-5.168;2023-04-19T12:52:22;40.17;;;20.47;;
69744;SDS011;57015;50.120;-5.168;2023-04-19T12:54:47;41.33;;;20.42;;
69744;SDS011;57015;50.120;-5.168;2023-04-19T12:57:13;36.33;;;18.17;;
69744;SDS011;57015;50.120;-5.168;2023-04-19T12:59:38;37.07;;;19.00;;
69744;SDS011;57015;50.120;-5.168;2023-04-19T13:02:04;37.97;;;19.23;;
69744;SDS011;57015;50.120;-5.168;2023-04-19T13:04:30;39.95;;;19.73;;
69744;SDS011;57015;50.120;-5.168;2023-04-19T13:06:55;37.73;;;19.90;;
69744;SDS011;57015;50.120;-5.168;2023-04-19T13:09:20;34.27;;;18.97;;
69744;SDS011;57015;50.120;-5.168;2023-04-19T13:11:46;40.28;;;19.42;;
69744;SDS011;57015;50.120;-5.168;2023-04-19T13:14:11;41.58;;;18.88;;
69744;SDS011;57015;50.120;-5.168;2023-04-19T13:16:36;34.97;;;18.87;;
69744;SDS011;57015;50.120;-5.168;2023-04-19T13:19:02;34.40;;;17.80;;
69744;SDS011;57015;50.120;-5.168;2023-04-19T13:21:27;34.67;;;17.50;;
69744;SDS011;57015;50.120;-5.168;2023-04-19T13:23:53;34.13;;;18.40;;
69744;SDS011;57015;50.120;-5.168;2023-04-19T13:26:18;35.13;;;17.60;;
69744;SDS011;57015;50.120;-5.168;2023-04-19T13:28:43;36.72;;;18.58;;
69744;SDS011;57015;50.120;-5.168;2023-04-19T13:31:09;34.70;;;16.70;;
69744;SDS011;57015;50.120;-5.168;2023-04-19T13:33:34;34.57;;;16.80;;
69744;SDS011;57015;50.120;-5.168;2023-04-19T13:36:00;33.30;;;16.45;;
69744;SDS011;57015;50.120;-5.168;2023-04-19T13:38:26;36.70;;;17.37;;
69744;SDS011;57015;50.120;-5.168;2023-04-19T13:40:51;32.53;;;16.07;;
69744;SDS011;57015;50.120;-5.168;2023-04-19T13:43:17;38.13;;;15.57;;
69744;SDS011;57015;50.120;-5.168;2023-04-19T13:45:42;35.40;;;16.45;;
69744;SDS011;57015;50.120;-5.168;2023-04-19T13:48:08;30.77;;;16.67;;
69744;SDS011;57015;50.120;-5.168;2023-04-19T13:50:33;33.53;;;16.10;;
69744;SDS011;57015;50.120;-5.168;2023-04-19T13:52:58;34.90;;;14.83;;
69744;SDS011;57015;50.120;-5.168;2023-04-19T13:55:25;35.30;;;15.50;;
69744;SDS011;57015;50.120;-5.168;2023-04-19T13:57:50;31.55;;;14.35;;
69744;SDS011;57015;50.120;-5.168;2023-04-19T14:00:16;33.70;;;14.77;;
69744;SDS011;57015;50.120;-5.168;2023-04-19T14:02:42;30.17;;;13.68;;
69744;SDS011;57015;50.120;-5.168;2023-04-19T14:05:08;30.40;;;13.82;;
69744;SDS011;57015;50.120;-5.168;2023-04-19T14:07:34;28.37;;;13.23;;
69744;SDS011;57015;50.120;-5.168;2023-04-19T14:09:59;27.17;;;13.73;;
69744;SDS011;57015;50.120;-5.168;2023-04-19T14:12:25;30.10;;;13.03;;
69744;SDS011;57015;50.120;-5.168;2023-04-19T14:14:50;28.75;;;13.25;;
69744;SDS011;57015;50.120;-5.168;2023-04-19T14:17:16;33.50;;;12.83;;
69744;SDS011;57015;50.120;-5.168;2023-04-19T14:19:41;32.10;;;12.80;;
69744;SDS011;57015;50.120;-5.168;2023-04-19T14:22:06;28.57;;;12.53;;
69744;SDS011;57015;50.120;-5.168;2023-04-19T14:24:32;31.23;;;13.67;;